createdAt,value
2018-12-19T00:01:42.196Z,15.57
2018-12-19T00:04:16.529Z,17.90
2018-12-19T00:06:51.405Z,14.03
2018-12-19T00:09:26.489Z,10.50
2018-12-19T00:12:00.931Z,15.83
2018-12-19T00:14:36.126Z,17.17
2018-12-19T00:17:11.103Z,17.80
2018-12-19T00:19:46.094Z,12.90
2018-12-19T00:22:21.354Z,18.30
2018-12-19T00:24:56.352Z,13.00
2018-12-19T00:27:30.833Z,17.50
2018-12-19T00:30:05.996Z,17.43
2018-12-19T00:32:41.557Z,20.03
2018-12-19T00:35:16.037Z,15.63
2018-12-19T00:37:51.346Z,13.07
2018-12-19T00:40:25.785Z,19.33
2018-12-19T00:43:00.176Z,15.77
2018-12-19T00:45:35.344Z,19.33
2018-12-19T00:48:09.841Z,14.60
2018-12-19T00:50:44.881Z,17.60
2018-12-19T00:53:19.349Z,15.50
2018-12-19T00:55:53.813Z,19.60
2018-12-19T00:58:28.205Z,11.73
2018-12-19T01:01:03.609Z,14.13
2018-12-19T01:03:38.878Z,17.50
2018-12-19T01:06:13.509Z,16.27
2018-12-19T01:08:48.543Z,19.00
2018-12-19T01:11:23.186Z,20.50
2018-12-19T01:14:02.122Z,20.43
2018-12-19T01:16:36.458Z,16.70
2018-12-19T01:19:11.812Z,21.00
2018-12-19T01:21:47.252Z,21.30
2018-12-19T01:24:22.447Z,23.60
2018-12-19T01:26:56.944Z,21.43
2018-12-19T01:29:31.233Z,17.80
2018-12-19T01:32:13.853Z,25.63
2018-12-19T01:34:48.368Z,18.37
2018-12-19T01:37:28.633Z,20.83
2018-12-19T01:40:04.566Z,28.00
2018-12-19T01:42:39.065Z,20.97
2018-12-19T01:45:14.325Z,20.80
2018-12-19T01:47:49.190Z,27.07
2018-12-19T01:50:24.444Z,22.00
2018-12-19T01:52:59.005Z,20.90
2018-12-19T01:55:33.576Z,20.93
2018-12-19T01:58:07.965Z,21.73
2018-12-19T02:00:52.241Z,21.13
2018-12-19T02:03:27.256Z,20.77
2018-12-19T02:06:01.757Z,21.20
2018-12-19T02:08:37.042Z,20.50
2018-12-19T02:11:12.385Z,18.13
2018-12-19T02:13:46.858Z,18.87
2018-12-19T02:16:22.462Z,21.20
2018-12-19T02:18:57.693Z,18.10
2018-12-19T02:21:39.390Z,21.23
2018-12-19T02:24:14.354Z,24.23
2018-12-19T02:26:48.820Z,22.37
2018-12-19T02:29:23.316Z,19.70
2018-12-19T02:31:57.660Z,19.60
2018-12-19T02:34:32.732Z,28.63
2018-12-19T02:37:08.147Z,24.70
2018-12-19T02:39:43.104Z,25.23
2018-12-19T02:42:17.546Z,21.30
2018-12-19T02:44:52.639Z,23.93
2018-12-19T02:47:27.191Z,20.47
2018-12-19T02:50:02.240Z,19.20
2018-12-19T02:52:36.642Z,18.67
2018-12-19T02:55:11.017Z,22.40
2018-12-19T02:57:45.360Z,22.50
2018-12-19T03:00:19.849Z,26.73
2018-12-19T03:02:55.057Z,18.57
2018-12-19T03:05:29.776Z,24.90
2018-12-19T03:08:04.816Z,25.03
2018-12-19T03:10:40.176Z,19.87
2018-12-19T03:13:14.710Z,24.40
2018-12-19T03:15:49.822Z,22.33
2018-12-19T03:18:24.282Z,23.60
2018-12-19T03:20:59.778Z,24.53
2018-12-19T03:23:34.856Z,18.80
2018-12-19T03:26:09.090Z,22.80
2018-12-19T03:28:43.496Z,23.63
2018-12-19T03:31:17.939Z,22.57
2018-12-19T03:33:52.957Z,24.60
2018-12-19T03:36:28.270Z,22.80
2018-12-19T03:39:05.247Z,17.87
2018-12-19T03:41:39.588Z,27.00
2018-12-19T03:44:14.881Z,28.37
2018-12-19T03:46:49.384Z,24.67
2018-12-19T03:49:24.273Z,24.40
2018-12-19T03:51:59.400Z,25.23
2018-12-19T03:54:34.409Z,29.17
2018-12-19T03:57:09.397Z,23.70
2018-12-19T03:59:43.773Z,26.57
2018-12-19T04:02:19.157Z,21.83
2018-12-19T04:04:53.490Z,29.70
2018-12-19T04:07:34.515Z,25.47
2018-12-19T04:10:08.946Z,20.50
2018-12-19T04:12:43.499Z,20.27
2018-12-19T04:15:18.906Z,23.77
2018-12-19T04:17:53.201Z,29.63
2018-12-19T04:20:28.693Z,27.27
2018-12-19T04:23:04.118Z,23.97
2018-12-19T04:25:39.501Z,26.77
2018-12-19T04:28:14.012Z,26.10
2018-12-19T04:30:48.599Z,27.30
2018-12-19T04:33:24.469Z,28.20
2018-12-19T04:36:00.261Z,23.27
2018-12-19T04:38:36.381Z,24.90
2018-12-19T04:41:10.934Z,26.00
2018-12-19T04:43:45.410Z,27.13
2018-12-19T04:46:20.813Z,31.73
2018-12-19T04:48:55.149Z,25.17
2018-12-19T04:51:30.966Z,22.97
2018-12-19T04:54:06.321Z,29.60
2018-12-19T04:56:40.636Z,26.57
2018-12-19T04:59:15.218Z,25.83
2018-12-19T05:01:50.681Z,22.73
2018-12-19T05:04:26.087Z,23.40
2018-12-19T05:07:00.649Z,26.27
2018-12-19T05:09:36.193Z,23.60
2018-12-19T05:12:10.672Z,30.40
2018-12-19T05:14:46.359Z,24.10
2018-12-19T05:17:20.717Z,23.07
2018-12-19T05:19:56.581Z,28.63
2018-12-19T05:22:34.367Z,23.17
2018-12-19T05:25:11.899Z,24.47
2018-12-19T05:27:46.563Z,24.90
2018-12-19T05:30:21.022Z,25.70
2018-12-19T05:32:56.431Z,27.37
2018-12-19T05:35:31.604Z,19.47
2018-12-19T05:38:06.607Z,25.70
2018-12-19T05:40:41.115Z,23.23
2018-12-19T05:43:15.698Z,26.87
2018-12-19T05:45:50.901Z,24.77
2018-12-19T05:48:25.463Z,24.90
2018-12-19T05:51:01.061Z,21.50
2018-12-19T05:53:36.302Z,19.20
2018-12-19T05:56:10.917Z,30.23
2018-12-19T05:58:45.247Z,22.10
2018-12-19T06:01:27.956Z,26.50
2018-12-19T06:04:03.202Z,28.30
2018-12-19T06:06:37.780Z,23.40
2018-12-19T06:09:12.865Z,26.50
2018-12-19T06:11:47.184Z,20.53
2018-12-19T06:14:22.248Z,24.67
2018-12-19T06:16:56.817Z,28.03
2018-12-19T06:19:31.721Z,24.47
2018-12-19T06:22:06.885Z,25.70
2018-12-19T06:24:41.693Z,24.63
2018-12-19T06:27:16.474Z,27.13
2018-12-19T06:29:50.892Z,26.50
2018-12-19T06:32:25.980Z,23.87
2018-12-19T06:35:00.414Z,24.57
2018-12-19T06:37:38.526Z,27.67
2018-12-19T06:40:13.089Z,27.30
2018-12-19T06:42:47.724Z,25.53
2018-12-19T06:45:22.665Z,26.73
2018-12-19T06:47:57.049Z,28.53
2018-12-19T06:50:31.381Z,26.63
2018-12-19T06:53:06.936Z,30.50
2018-12-19T06:55:41.253Z,27.47
2018-12-19T06:58:15.934Z,28.50
2018-12-19T07:00:58.661Z,27.60
2018-12-19T07:03:33.401Z,32.07
2018-12-19T07:06:14.743Z,27.03
2018-12-19T07:08:49.917Z,24.20
2018-12-19T07:11:24.472Z,29.13
2018-12-19T07:14:02.236Z,26.80
2018-12-19T07:16:43.211Z,24.37
2018-12-19T07:19:13.791Z,29.93
2018-12-19T07:21:49.084Z,27.20
2018-12-19T07:24:24.379Z,27.33
2018-12-19T07:26:59.327Z,33.67
2018-12-19T07:29:33.654Z,30.37
2018-12-19T07:32:14.203Z,27.57
2018-12-19T07:34:48.756Z,29.27
2018-12-19T07:37:39.479Z,29.30
2018-12-19T07:40:14.030Z,32.37
2018-12-19T07:42:48.576Z,29.03
2018-12-19T07:45:23.794Z,30.73
2018-12-19T07:50:45.158Z,30.17
2018-12-19T07:53:20.313Z,27.90
2018-12-19T07:55:54.843Z,33.63
2018-12-19T07:58:29.950Z,32.27
2018-12-19T08:01:05.486Z,35.67
2018-12-19T08:03:39.930Z,33.57
2018-12-19T08:06:14.969Z,27.77
2018-12-19T08:08:49.874Z,27.23
2018-12-19T08:11:24.178Z,36.50
2018-12-19T08:14:02.658Z,26.63
2018-12-19T08:16:37.873Z,25.53
2018-12-19T08:19:13.182Z,31.87
2018-12-19T08:21:48.638Z,36.13
2018-12-19T08:24:23.650Z,29.67
2018-12-19T08:26:58.190Z,33.60
2018-12-19T08:29:32.841Z,28.00
2018-12-19T08:32:13.958Z,28.13
2018-12-19T08:34:48.245Z,33.50
2018-12-19T08:37:39.149Z,29.60
2018-12-19T08:40:14.012Z,30.37
2018-12-19T08:42:49.102Z,28.17
2018-12-19T08:45:24.881Z,26.90
2018-12-19T08:47:59.699Z,36.80
2018-12-19T08:53:15.899Z,30.80
2018-12-19T08:55:50.957Z,33.07
2018-12-19T08:58:25.541Z,30.20
2018-12-19T09:01:06.482Z,29.60
2018-12-19T09:03:41.709Z,29.10
2018-12-19T09:06:16.681Z,30.10
2018-12-19T09:08:51.600Z,30.10
2018-12-19T09:11:26.082Z,30.43
2018-12-19T09:14:02.740Z,33.93
2018-12-19T09:16:37.076Z,32.10
2018-12-19T09:19:12.397Z,33.10
2018-12-19T09:21:47.696Z,24.13
2018-12-19T09:24:23.338Z,34.20
2018-12-19T09:26:57.973Z,30.40
2018-12-19T09:29:32.519Z,36.00
2018-12-19T09:32:14.344Z,24.10
2018-12-19T09:34:55.658Z,21.30
2018-12-19T09:37:42.464Z,28.30
2018-12-19T09:40:16.869Z,28.43
2018-12-19T09:42:51.344Z,24.03
2018-12-19T09:45:26.313Z,25.47
2018-12-19T09:48:01.054Z,32.37
2018-12-19T09:53:16.373Z,26.80
2018-12-19T09:55:50.739Z,28.43
2018-12-19T09:58:25.108Z,22.37
2018-12-19T10:01:07.793Z,33.43
2018-12-19T10:03:51.425Z,29.97
2018-12-19T10:06:26.351Z,25.20
2018-12-19T10:09:01.709Z,26.50
2018-12-19T10:11:36.069Z,26.43
2018-12-19T10:14:11.106Z,27.70
2018-12-19T10:16:45.610Z,41.53
2018-12-19T10:19:20.562Z,27.53
2018-12-19T10:21:55.854Z,24.10
2018-12-19T10:24:36.625Z,29.87
2018-12-19T10:27:13.257Z,24.77
2018-12-19T10:29:47.777Z,28.90
2018-12-19T10:32:23.289Z,28.00
2018-12-19T10:34:57.679Z,31.33
2018-12-19T10:37:43.889Z,33.93
2018-12-19T10:40:18.228Z,28.30
2018-12-19T10:42:52.980Z,27.93
2018-12-19T10:45:28.018Z,27.97
2018-12-19T10:48:02.484Z,33.50
2018-12-19T10:50:45.765Z,28.97
2018-12-19T10:53:20.785Z,34.20
2018-12-19T10:55:55.352Z,32.43
2018-12-19T10:58:29.822Z,27.20
2018-12-19T11:01:12.047Z,27.90
2018-12-19T11:03:46.779Z,30.93
2018-12-19T11:06:21.391Z,26.13
2018-12-19T11:08:56.352Z,32.43
2018-12-19T11:11:32.352Z,29.13
2018-12-19T11:14:07.693Z,23.93
2018-12-19T11:16:41.997Z,30.00
2018-12-19T11:19:17.279Z,27.50
2018-12-19T11:21:53.532Z,29.20
2018-12-19T11:24:28.862Z,25.30
2018-12-19T11:27:03.838Z,37.67
2018-12-19T11:29:38.725Z,33.60
2018-12-19T11:32:14.734Z,29.03
2018-12-19T11:34:49.357Z,30.50
2018-12-19T11:40:07.852Z,33.03
2018-12-19T11:42:42.492Z,29.57
2018-12-19T11:45:17.672Z,24.33
2018-12-19T11:47:52.126Z,34.03
2018-12-19T11:50:26.503Z,32.93
2018-12-19T11:53:01.834Z,28.90
2018-12-19T11:55:36.192Z,32.13
2018-12-19T11:58:11.035Z,29.50
2018-12-19T12:00:45.386Z,24.23
2018-12-19T12:03:20.747Z,24.37
2018-12-19T12:05:56.014Z,35.17
2018-12-19T12:08:31.103Z,32.40
2018-12-19T12:11:05.394Z,27.13
2018-12-19T12:13:40.277Z,29.53
2018-12-19T12:16:15.769Z,30.50
2018-12-19T12:18:51.982Z,31.83
2018-12-19T12:21:28.875Z,27.40
2018-12-19T12:24:04.121Z,27.90
2018-12-19T12:26:39.263Z,27.13
2018-12-19T12:29:13.828Z,36.17
2018-12-19T12:31:48.172Z,31.23
2018-12-19T12:34:23.837Z,26.90
2018-12-19T12:36:59.498Z,25.43
2018-12-19T12:39:35.146Z,31.63
2018-12-19T12:42:09.665Z,31.73
2018-12-19T12:44:45.702Z,28.60
2018-12-19T12:47:20.170Z,30.90
2018-12-19T12:49:54.705Z,30.57
2018-12-19T12:52:31.046Z,27.07
2018-12-19T12:55:06.353Z,28.90
2018-12-19T12:57:40.850Z,30.53
2018-12-19T13:00:15.362Z,34.23
2018-12-19T13:03:00.056Z,29.73
2018-12-19T13:05:34.553Z,31.30
2018-12-19T13:08:10.289Z,30.40
2018-12-19T13:10:44.751Z,26.73
2018-12-19T13:13:19.150Z,27.87
2018-12-19T13:15:54.856Z,25.10
2018-12-19T13:18:30.122Z,30.27
2018-12-19T13:21:05.673Z,28.30
2018-12-19T13:23:42.433Z,26.27
2018-12-19T13:26:18.175Z,29.57
2018-12-19T13:28:52.820Z,30.87
2018-12-19T13:31:27.353Z,30.70
2018-12-19T13:34:02.594Z,36.07
2018-12-19T13:36:38.325Z,24.80
2018-12-19T13:39:14.222Z,32.03
2018-12-19T13:41:48.727Z,26.23
2018-12-19T13:44:23.817Z,33.63
2018-12-19T13:46:58.196Z,32.60
2018-12-19T13:49:32.981Z,25.83
2018-12-19T13:52:08.957Z,26.23
2018-12-19T13:54:44.912Z,25.10
2018-12-19T13:57:19.770Z,26.93
2018-12-19T13:59:54.285Z,28.17
2018-12-19T14:02:29.453Z,31.23
2018-12-19T14:05:04.245Z,29.13
2018-12-19T14:07:39.685Z,37.50
2018-12-19T14:10:15.625Z,29.40
2018-12-19T14:12:49.953Z,26.50
2018-12-19T14:18:07.513Z,31.70
2018-12-19T14:20:50.420Z,29.20
2018-12-19T14:23:36.106Z,30.60
2018-12-19T14:26:12.461Z,26.70
2018-12-19T14:28:47.586Z,30.93
2018-12-19T14:31:22.125Z,26.87
2018-12-19T14:33:58.706Z,23.83
2018-12-19T14:36:34.364Z,28.30
2018-12-19T14:39:10.010Z,24.43
2018-12-19T14:41:44.748Z,27.03
2018-12-19T14:44:19.575Z,25.07
2018-12-19T14:46:54.053Z,27.93
2018-12-19T14:49:29.206Z,31.00
2018-12-19T14:52:04.764Z,28.47
2018-12-19T14:54:41.365Z,27.43
2018-12-19T14:57:15.911Z,29.60
2018-12-19T14:59:50.941Z,27.03
2018-12-19T15:02:26.930Z,25.97
2018-12-19T15:05:01.290Z,29.40
2018-12-19T15:07:38.394Z,23.80
2018-12-19T15:10:14.948Z,27.27
2018-12-19T15:12:49.506Z,25.57
2018-12-19T15:18:07.210Z,29.17
2018-12-19T15:20:50.646Z,23.77
2018-12-19T15:23:34.080Z,32.50
2018-12-19T15:26:10.742Z,28.67
2018-12-19T15:28:45.314Z,26.60
2018-12-19T15:31:19.838Z,29.00
2018-12-19T15:33:56.466Z,27.93
2018-12-19T15:36:32.990Z,21.70
2018-12-19T15:39:09.527Z,24.50
2018-12-19T15:41:43.941Z,26.77
2018-12-19T15:44:18.445Z,32.30
2018-12-19T15:46:53.016Z,24.77
2018-12-19T15:49:27.663Z,28.57
2018-12-19T15:52:03.880Z,28.80
2018-12-19T15:54:40.866Z,27.93
2018-12-19T15:57:15.361Z,28.53
2018-12-19T15:59:49.841Z,30.17
2018-12-19T16:02:26.169Z,33.10
2018-12-19T16:05:00.583Z,32.37
2018-12-19T16:07:38.562Z,29.33
2018-12-19T16:10:15.204Z,28.63
2018-12-19T16:12:49.506Z,26.07
2018-12-19T16:18:07.529Z,33.30
2018-12-19T16:20:51.997Z,27.67
2018-12-19T16:23:37.469Z,35.03
2018-12-19T16:26:13.597Z,28.17
2018-12-19T16:28:48.184Z,32.50
2018-12-19T16:31:23.803Z,32.27
2018-12-19T16:34:00.225Z,34.97
2018-12-19T16:36:37.354Z,33.47
2018-12-19T16:39:13.721Z,36.70
2018-12-19T16:41:48.245Z,33.50
2018-12-19T16:44:22.834Z,30.47
2018-12-19T16:46:57.299Z,37.30
2018-12-19T16:49:31.975Z,34.47
2018-12-19T16:52:08.660Z,30.03
2018-12-19T16:54:44.743Z,33.13
2018-12-19T16:57:19.239Z,33.40
2018-12-19T16:59:54.050Z,28.73
2018-12-19T17:02:30.296Z,29.73
2018-12-19T17:05:05.343Z,28.07
2018-12-19T17:07:42.459Z,38.97
2018-12-19T17:10:19.281Z,34.40
2018-12-19T17:12:55.753Z,37.30
2018-12-19T17:15:38.301Z,31.67
2018-12-19T17:18:14.857Z,30.20
2018-12-19T17:20:52.022Z,30.23
2018-12-19T17:23:37.907Z,27.73
2018-12-19T17:26:15.058Z,31.43
2018-12-19T17:28:49.378Z,30.93
2018-12-19T17:31:23.869Z,28.10
2018-12-19T17:34:00.165Z,30.07
2018-12-19T17:36:36.488Z,30.53
2018-12-19T17:39:12.831Z,34.90
2018-12-19T17:41:47.237Z,26.50
2018-12-19T17:44:21.742Z,27.03
2018-12-19T17:46:58.265Z,29.83
2018-12-19T17:49:32.584Z,31.47
2018-12-19T17:52:08.938Z,31.97
2018-12-19T17:54:45.877Z,28.07
2018-12-19T17:57:23.212Z,28.43
2018-12-19T17:59:57.905Z,32.73
2018-12-19T18:02:37.890Z,24.13
2018-12-19T18:05:12.808Z,26.97
2018-12-19T18:07:48.688Z,29.63
2018-12-19T18:10:25.662Z,28.10
2018-12-19T18:13:06.187Z,28.83
2018-12-19T18:15:41.069Z,30.43
2018-12-19T18:18:17.945Z,31.00
2018-12-19T18:20:54.401Z,32.43
2018-12-19T18:25:01.918Z,26.90
2018-12-19T18:27:38.173Z,33.17
2018-12-19T18:30:12.725Z,27.23
2018-12-19T18:32:49.481Z,31.17
2018-12-19T18:38:08.458Z,28.37
2018-12-19T18:40:43.609Z,27.87
2018-12-19T18:43:17.865Z,24.30
2018-12-19T18:45:53.874Z,21.83
2018-12-19T18:48:28.295Z,24.97
2018-12-19T18:51:13.280Z,28.27
2018-12-19T18:53:49.433Z,27.93
2018-12-19T18:56:27.127Z,28.60
2018-12-19T18:59:02.582Z,27.07
2018-12-19T19:01:40.272Z,26.17
2018-12-19T19:04:14.606Z,24.33
2018-12-19T19:06:51.698Z,30.67
2018-12-19T19:09:28.014Z,24.37
2018-12-19T19:12:03.945Z,30.03
2018-12-19T19:14:40.457Z,28.60
2018-12-19T19:17:17.475Z,23.87
2018-12-19T19:19:53.815Z,27.73
2018-12-19T19:22:30.586Z,23.77
2018-12-19T19:25:07.649Z,24.60
2018-12-19T19:27:44.021Z,27.20
2018-12-19T19:30:18.674Z,27.23
2018-12-19T19:32:56.574Z,30.70
2018-12-19T19:35:38.981Z,30.70
2018-12-19T19:38:16.877Z,26.60
2018-12-19T19:40:51.518Z,29.03
2018-12-19T19:43:28.002Z,25.47
2018-12-19T19:46:02.593Z,34.43
2018-12-19T19:48:36.887Z,30.87
2018-12-19T19:51:17.114Z,29.47
2018-12-19T19:53:54.737Z,28.27
2018-12-19T19:56:29.502Z,29.80
2018-12-19T19:59:04.085Z,33.03
2018-12-19T20:01:41.201Z,35.27
2018-12-19T20:04:15.620Z,31.60
2018-12-19T20:06:51.709Z,27.57
2018-12-19T20:09:27.817Z,23.13
2018-12-19T20:12:02.693Z,28.23
2018-12-19T20:14:39.515Z,29.73
2018-12-19T20:17:20.999Z,27.83
2018-12-19T20:19:57.713Z,26.87
2018-12-19T20:22:34.185Z,26.80
2018-12-19T20:25:10.779Z,37.20
2018-12-19T20:27:47.529Z,23.23
2018-12-19T20:30:22.085Z,25.53
2018-12-19T20:32:58.788Z,24.77
2018-12-19T20:35:37.329Z,24.20
2018-12-19T20:38:13.541Z,30.53
2018-12-19T20:40:48.041Z,25.10
2018-12-19T20:43:24.741Z,32.47
2018-12-19T20:46:01.312Z,24.03
2018-12-19T20:48:35.675Z,30.77
2018-12-19T20:51:15.574Z,25.53
2018-12-19T20:53:51.702Z,23.47
2018-12-19T20:56:26.644Z,28.70
2018-12-19T20:59:01.181Z,34.27
2018-12-19T21:01:44.218Z,36.83
2018-12-19T21:04:20.569Z,33.40
2018-12-19T21:06:56.732Z,28.70
2018-12-19T21:09:33.206Z,24.30
2018-12-19T21:12:07.893Z,31.60
2018-12-19T21:14:44.401Z,27.97
2018-12-19T21:17:26.394Z,29.37
2018-12-19T21:20:02.362Z,30.03
2018-12-19T21:22:39.152Z,25.73
2018-12-19T21:25:15.502Z,29.70
2018-12-19T21:27:51.869Z,26.80
2018-12-19T21:30:27.925Z,28.63
2018-12-19T21:33:04.005Z,28.43
2018-12-19T21:35:40.452Z,22.53
2018-12-19T21:38:16.725Z,29.73
2018-12-19T21:40:51.694Z,26.83
2018-12-19T21:43:27.380Z,30.50
2018-12-19T21:46:03.716Z,27.10
2018-12-19T21:48:38.376Z,27.97
2018-12-19T21:51:16.437Z,27.53
2018-12-19T21:53:53.084Z,23.80
2018-12-19T21:56:27.840Z,30.27
2018-12-19T21:59:02.490Z,26.07
2018-12-19T22:01:45.750Z,27.23
2018-12-19T22:04:20.210Z,28.03
2018-12-19T22:06:55.144Z,23.40
2018-12-19T22:09:30.352Z,22.13
2018-12-19T22:12:05.002Z,23.40
2018-12-19T22:14:40.116Z,23.80
2018-12-19T22:17:20.738Z,25.50
2018-12-19T22:19:55.745Z,28.63
2018-12-19T22:22:31.077Z,27.60
2018-12-19T22:25:06.129Z,21.10
2018-12-19T22:27:41.235Z,23.53
2018-12-19T22:30:16.677Z,23.60
2018-12-19T22:32:51.659Z,23.20
2018-12-19T22:35:35.349Z,22.83
2018-12-19T22:38:10.349Z,25.57
2018-12-19T22:40:44.923Z,27.87
2018-12-19T22:43:20.178Z,28.33
2018-12-19T22:45:54.647Z,24.70
2018-12-19T22:48:29.116Z,28.33
2018-12-19T22:51:12.240Z,24.07
2018-12-19T22:53:47.373Z,26.50
2018-12-19T22:56:22.038Z,24.90
2018-12-19T22:58:57.150Z,24.27
2018-12-19T23:04:18.312Z,23.00
2018-12-19T23:06:54.338Z,24.63
2018-12-19T23:09:29.483Z,21.90
2018-12-19T23:12:04.261Z,23.27
2018-12-19T23:14:39.451Z,25.97
2018-12-19T23:17:20.314Z,22.63
2018-12-19T23:19:55.665Z,25.63
2018-12-19T23:22:30.948Z,27.00
2018-12-19T23:25:07.171Z,24.77
2018-12-19T23:27:41.689Z,26.10
2018-12-19T23:30:16.915Z,23.00
2018-12-19T23:32:52.516Z,28.70
2018-12-19T23:35:36.222Z,21.27
2018-12-19T23:38:11.374Z,25.67
2018-12-19T23:40:46.225Z,23.97
2018-12-19T23:43:21.529Z,26.80
2018-12-19T23:45:55.989Z,23.33
2018-12-19T23:48:30.747Z,24.97
2018-12-19T23:51:14.594Z,22.93
2018-12-19T23:53:49.654Z,27.90
2018-12-19T23:56:24.817Z,22.43
2018-12-19T23:58:59.249Z,22.63
